Time;durP1;ratioP1;P1;durP2;ratioP2;P2;SDS_P1;SDS_P2;PMS_P1;PMS_P2;Temp;Humidity;BMP_temperature;BMP_pressure;BME280_temperature;BME280_humidity;BME280_pressure;Samples;Min_cycle;Max_cycle;Signal;HPM_P1;HPM_P2
2022/01/05 00:00:53;;;;;;;8.07;1.40;;;12.00;60.70;;;;;;6159904;23;20326;-76
2022/01/05 00:03:19;;;;;;;3.75;1.00;;;12.00;60.80;;;;;;6159458;23;20092;-74
2022/01/05 00:05:44;;;;;;;6.50;1.10;;;11.90;60.70;;;;;;6159409;23;20092;-75
2022/01/05 00:08:12;;;;;;;7.72;1.45;;;11.90;59.30;;;;;;6158384;23;20017;-75
2022/01/05 00:10:38;;;;;;;6.10;1.48;;;11.90;60.10;;;;;;6159599;23;20017;-74
2022/01/05 00:13:04;;;;;;;6.22;1.40;;;11.80;59.50;;;;;;6158200;23;20360;-75
2022/01/05 00:15:29;;;;;;;6.28;1.70;;;11.80;60.40;;;;;;6159262;23;20364;-76
2022/01/05 00:17:55;;;;;;;7.88;1.55;;;11.80;60.60;;;;;;6159403;23;20097;-76
2022/01/05 00:20:21;;;;;;;6.88;1.80;;;11.70;59.10;;;;;;6159950;23;20014;-75
2022/01/05 00:22:47;;;;;;;6.63;1.75;;;11.70;61.00;;;;;;6158260;23;20445;-76
2022/01/05 00:25:13;;;;;;;6.95;1.92;;;11.70;59.70;;;;;;6158263;23;20017;-75
2022/01/05 00:27:38;;;;;;;8.55;1.58;;;11.60;59.60;;;;;;6158713;23;20415;-76
2022/01/05 00:30:05;;;;;;;6.18;1.50;;;11.60;60.50;;;;;;6159256;23;20018;-74
2022/01/05 00:32:30;;;;;;;5.95;1.42;;;11.70;60.30;;;;;;6159742;23;20057;-75
2022/01/05 00:34:56;;;;;;;9.25;2.00;;;11.60;60.20;;;;;;6158519;23;20289;-77
2022/01/05 00:37:22;;;;;;;9.02;1.90;;;11.60;60.10;;;;;;6159076;23;20394;-76
2022/01/05 00:39:47;;;;;;;8.35;1.83;;;11.60;59.40;;;;;;6159183;23;20061;-78
2022/01/05 00:42:14;;;;;;;8.48;1.98;;;11.60;60.10;;;;;;6158309;23;20014;-76
2022/01/05 00:44:40;;;;;;;11.18;1.90;;;11.60;59.80;;;;;;6158773;23;20024;-75
2022/01/05 00:47:06;;;;;;;8.65;1.63;;;11.60;60.30;;;;;;6158023;23;20018;-77
2022/01/05 00:49:31;;;;;;;9.95;1.85;;;11.60;61.10;;;;;;6133421;23;20025;-75
2022/01/05 00:51:57;;;;;;;9.05;1.88;;;11.60;60.40;;;;;;6159006;23;20057;-75
2022/01/05 00:54:23;;;;;;;8.05;1.70;;;11.60;60.20;;;;;;6158989;23;20035;-76
2022/01/05 00:56:49;;;;;;;10.80;2.17;;;11.60;60.60;;;;;;6159007;23;20018;-77
2022/01/05 00:59:14;;;;;;;6.95;2.10;;;11.50;60.40;;;;;;6158067;23;20052;-76
2022/01/05 01:01:40;;;;;;;6.65;1.23;;;11.60;60.80;;;;;;6158798;23;20092;-76
2022/01/05 01:04:07;;;;;;;7.82;1.73;;;11.50;60.10;;;;;;6158974;23;20072;-76
2022/01/05 01:06:32;;;;;;;12.15;2.10;;;11.50;60.20;;;;;;6157859;23;20056;-76
2022/01/05 01:08:58;;;;;;;9.45;1.80;;;11.50;59.70;;;;;;6158853;23;20088;-75
2022/01/05 01:11:24;;;;;;;9.23;1.80;;;11.40;60.00;;;;;;6157746;23;20018;-74
2022/01/05 01:13:50;;;;;;;7.45;1.35;;;11.40;59.50;;;;;;6157376;23;20052;-75
2022/01/05 01:16:17;;;;;;;7.25;2.10;;;11.40;59.10;;;;;;6158785;23;20017;-74
2022/01/05 01:18:43;;;;;;;7.82;1.88;;;11.30;59.30;;;;;;6157320;23;20022;-75
2022/01/05 01:21:09;;;;;;;11.80;1.77;;;11.20;59.00;;;;;;6157568;23;20017;-75
2022/01/05 01:23:36;;;;;;;10.48;1.85;;;11.20;60.00;;;;;;6158568;23;20315;-75
2022/01/05 01:26:02;;;;;;;11.52;2.20;;;11.30;59.60;;;;;;6158721;23;20052;-77
2022/01/05 01:28:28;;;;;;;12.50;2.58;;;11.30;59.90;;;;;;6157513;23;20029;-74
2022/01/05 01:30:53;;;;;;;12.50;2.42;;;11.30;60.40;;;;;;6158565;23;20044;-75
2022/01/05 01:33:20;;;;;;;10.15;2.13;;;11.30;59.20;;;;;;6158307;23;20060;-75
2022/01/05 01:35:46;;;;;;;9.43;1.88;;;11.20;60.00;;;;;;6157690;23;20018;-75
2022/01/05 01:38:12;;;;;;;8.25;1.83;;;11.20;60.00;;;;;;6158475;23;20024;-75
2022/01/05 01:40:37;;;;;;;9.00;1.75;;;11.30;60.90;;;;;;6156862;23;20021;-76
2022/01/05 01:43:03;;;;;;;9.30;1.75;;;11.30;60.00;;;;;;6159269;23;20021;-76
2022/01/05 01:45:29;;;;;;;6.57;2.10;;;11.30;60.30;;;;;;6157621;23;20419;-74
2022/01/05 01:47:55;;;;;;;8.88;2.00;;;11.30;59.80;;;;;;6157353;23;20489;-77
2022/01/05 01:50:20;;;;;;;10.68;1.80;;;11.20;60.00;;;;;;6159211;23;20025;-75
2022/01/05 01:52:46;;;;;;;7.72;1.83;;;11.20;58.80;;;;;;6157269;23;20017;-75
2022/01/05 01:55:12;;;;;;;7.53;2.00;;;11.10;60.00;;;;;;6158393;23;20170;-75
2022/01/05 01:57:41;;;;;;;8.20;2.00;;;11.20;60.80;;;;;;6158124;23;20026;-75
2022/01/05 02:00:08;;;;;;;9.27;2.22;;;11.20;60.00;;;;;;6157578;23;20363;-77
2022/01/05 02:02:34;;;;;;;7.95;1.98;;;11.20;60.30;;;;;;6157389;23;20013;-76
2022/01/05 02:04:59;;;;;;;10.88;2.50;;;11.30;60.30;;;;;;6159273;23;20112;-75
2022/01/05 02:07:26;;;;;;;17.25;2.45;;;11.30;61.30;;;;;;6157375;23;20427;-75
2022/01/05 02:09:52;;;;;;;10.73;2.30;;;11.20;60.70;;;;;;6157467;23;20044;-74
2022/01/05 02:12:17;;;;;;;11.57;1.98;;;11.30;60.20;;;;;;6158937;23;20411;-75
2022/01/05 02:14:43;;;;;;;9.52;2.30;;;11.20;60.30;;;;;;6156945;23;20316;-74
2022/01/05 02:17:19;;;;;;;9.38;2.08;;;11.20;60.80;;;;;;6158815;23;20022;-76
2022/01/05 02:19:45;;;;;;;8.15;1.65;;;11.20;61.50;;;;;;6156746;23;20024;-75
2022/01/05 02:22:11;;;;;;;7.82;1.88;;;11.20;60.90;;;;;;6158276;23;20048;-75
2022/01/05 02:24:36;;;;;;;12.27;1.95;;;11.10;61.10;;;;;;6158134;23;20080;-75
2022/01/05 02:27:02;;;;;;;8.98;1.50;;;11.10;60.70;;;;;;6157572;23;20017;-75
2022/01/05 02:29:28;;;;;;;11.10;2.10;;;11.20;62.00;;;;;;6158061;23;20088;-77
2022/01/05 02:31:55;;;;;;;7.28;2.00;;;11.10;61.60;;;;;;6158555;23;20013;-74
2022/01/05 02:34:21;;;;;;;7.03;2.10;;;11.10;61.10;;;;;;6157856;23;20446;-76
2022/01/05 02:36:47;;;;;;;9.15;1.63;;;11.10;61.40;;;;;;6158185;23;20089;-78
2022/01/05 02:39:12;;;;;;;8.75;2.20;;;11.10;61.80;;;;;;6157947;23;20294;-75
2022/01/05 02:41:38;;;;;;;7.60;2.38;;;11.00;61.00;;;;;;6157728;23;20090;-76
2022/01/05 02:44:04;;;;;;;9.15;1.77;;;11.00;61.60;;;;;;6158703;23;20025;-74
2022/01/05 02:46:31;;;;;;;10.07;2.10;;;11.00;61.00;;;;;;6158443;23;20319;-75
2022/01/05 02:48:58;;;;;;;10.18;1.85;;;11.00;60.90;;;;;;6158823;23;20021;-74
2022/01/05 02:51:24;;;;;;;8.23;1.90;;;11.00;62.30;;;;;;6156940;23;20100;-75
2022/01/05 02:53:49;;;;;;;8.65;2.00;;;11.10;62.30;;;;;;6157707;23;20049;-74
2022/01/05 02:56:15;;;;;;;10.27;1.63;;;11.00;61.80;;;;;;6158543;23;20132;-75
2022/01/05 02:58:41;;;;;;;7.55;1.83;;;11.00;61.30;;;;;;6157990;23;20017;-75
2022/01/05 03:01:07;;;;;;;11.27;1.75;;;10.90;61.90;;;;;;6158381;23;20085;-76
2022/01/05 03:03:33;;;;;;;10.45;2.20;;;10.90;61.70;;;;;;6158117;23;20066;-75
2022/01/05 03:05:59;;;;;;;7.25;1.67;;;10.90;61.90;;;;;;6157142;23;20013;-76
2022/01/05 03:08:24;;;;;;;9.95;1.60;;;10.90;62.10;;;;;;6157899;23;20430;-75
2022/01/05 03:10:50;;;;;;;8.98;2.08;;;10.80;62.10;;;;;;6157512;23;20014;-73
2022/01/05 03:13:16;;;;;;;8.70;2.03;;;10.90;63.10;;;;;;6157721;23;20022;-76
2022/01/05 03:15:42;;;;;;;8.13;1.58;;;10.70;62.60;;;;;;6157703;23;20088;-75
2022/01/05 03:18:08;;;;;;;6.13;1.45;;;10.80;63.10;;;;;;6158139;23;20022;-77
2022/01/05 03:20:34;;;;;;;6.97;1.40;;;10.70;63.00;;;;;;6156693;23;20024;-75
2022/01/05 03:23:04;;;;;;;9.52;2.13;;;10.70;63.80;;;;;;6158672;23;20100;-75
2022/01/05 03:25:30;;;;;;;8.20;2.00;;;10.70;63.50;;;;;;6159691;23;20087;-74
2022/01/05 03:27:56;;;;;;;11.85;2.85;;;10.70;64.20;;;;;;6158553;23;20164;-75
2022/01/05 03:30:25;;;;;;;12.07;2.08;;;10.80;64.20;;;;;;6159735;23;20018;-76
2022/01/05 03:35:28;;;;;;;7.68;1.48;;;10.70;64.10;;;;;;6158631;23;20017;-75
2022/01/05 03:37:54;;;;;;;5.28;1.50;;;10.70;63.40;;;;;;6158705;23;20330;-77
2022/01/05 03:40:20;;;;;;;5.22;1.35;;;10.70;64.20;;;;;;6159359;23;20053;-75
2022/01/05 03:42:46;;;;;;;7.85;1.65;;;10.60;62.70;;;;;;6159074;23;20017;-75
2022/01/05 03:45:12;;;;;;;7.70;1.58;;;10.60;63.70;;;;;;6158252;23;20020;-76
2022/01/05 03:47:37;;;;;;;5.07;1.65;;;10.60;64.10;;;;;;6159545;23;20014;-76
2022/01/05 03:50:04;;;;;;;6.72;1.40;;;10.60;64.80;;;;;;6158033;23;20049;-74
2022/01/05 03:52:30;;;;;;;9.73;1.65;;;10.60;64.50;;;;;;6159326;23;20368;-74
2022/01/05 03:54:55;;;;;;;7.85;1.50;;;10.50;65.10;;;;;;6158119;23;20017;-75
2022/01/05 03:57:21;;;;;;;5.72;1.23;;;10.60;65.30;;;;;;6160633;23;20040;-74
2022/01/05 03:59:47;;;;;;;7.45;1.63;;;10.60;65.40;;;;;;6159504;23;20013;-74
2022/01/05 04:02:12;;;;;;;8.93;1.70;;;10.60;65.70;;;;;;6159412;23;20088;-74
2022/01/05 04:04:38;;;;;;;7.82;1.60;;;10.70;65.60;;;;;;6158153;23;20021;-77
2022/01/05 04:07:04;;;;;;;8.32;1.60;;;10.70;65.70;;;;;;6157786;23;20427;-74
2022/01/05 04:09:30;;;;;;;8.85;2.35;;;10.70;65.60;;;;;;6158605;23;20033;-74
2022/01/05 04:11:56;;;;;;;12.43;2.17;;;10.70;64.20;;;;;;6159803;23;20021;-74
2022/01/05 04:14:21;;;;;;;9.98;1.70;;;10.70;65.10;;;;;;6158695;23;20048;-74
2022/01/05 04:16:47;;;;;;;10.95;2.13;;;10.60;64.80;;;;;;6157809;23;20436;-74
2022/01/05 04:19:13;;;;;;;8.23;2.00;;;10.60;64.70;;;;;;6159023;23;20431;-74
2022/01/05 04:21:39;;;;;;;11.00;2.22;;;10.60;66.00;;;;;;6158774;23;20053;-74
2022/01/05 04:24:05;;;;;;;7.80;1.90;;;10.60;65.70;;;;;;6159756;23;20502;-76
2022/01/05 04:26:30;;;;;;;7.80;1.80;;;10.60;65.50;;;;;;6159404;23;20404;-74
2022/01/05 04:28:56;;;;;;;6.40;1.80;;;10.60;65.00;;;;;;6159172;23;20021;-76
2022/01/05 04:31:22;;;;;;;8.63;2.15;;;10.60;65.10;;;;;;6159281;23;20021;-74
2022/01/05 04:33:47;;;;;;;7.03;1.98;;;10.60;65.20;;;;;;6158081;23;20017;-74
2022/01/05 04:36:13;;;;;;;9.45;1.70;;;10.60;65.50;;;;;;6159554;23;20069;-74
2022/01/05 04:38:39;;;;;;;11.70;1.58;;;10.60;65.50;;;;;;6159697;23;20131;-76
2022/01/05 04:41:04;;;;;;;10.20;2.10;;;10.60;65.00;;;;;;6159872;23;20018;-75
2022/01/05 04:43:30;;;;;;;10.45;2.00;;;10.60;63.80;;;;;;6159093;23;20477;-75
2022/01/05 04:45:56;;;;;;;11.75;2.42;;;10.50;65.20;;;;;;6158942;23;20028;-74
2022/01/05 04:48:22;;;;;;;7.03;1.95;;;10.50;65.30;;;;;;6158981;23;20029;-74
2022/01/05 04:50:48;;;;;;;9.60;1.95;;;10.50;65.00;;;;;;6158296;23;20111;-75
2022/01/05 04:53:14;;;;;;;11.85;2.10;;;10.50;65.50;;;;;;6158929;23;20434;-75
2022/01/05 04:55:41;;;;;;;9.23;1.90;;;10.50;65.70;;;;;;6159640;23;20018;-74
2022/01/05 04:58:06;;;;;;;11.43;1.73;;;10.40;66.10;;;;;;6159736;23;20072;-75
2022/01/05 05:00:32;;;;;;;14.35;2.42;;;10.40;66.50;;;;;;6159693;23;20351;-74
2022/01/05 05:02:58;;;;;;;6.80;1.70;;;10.40;66.10;;;;;;6158566;23;20434;-74
2022/01/05 05:05:24;;;;;;;7.72;2.30;;;10.40;66.40;;;;;;6159065;23;20133;-74
2022/01/05 05:07:49;;;;;;;9.85;2.05;;;10.40;66.10;;;;;;6157356;23;20021;-75
2022/01/05 05:10:15;;;;;;;8.98;1.92;;;10.40;65.60;;;;;;6159190;23;20017;-75
2022/01/05 05:12:41;;;;;;;13.27;2.20;;;10.40;66.40;;;;;;6159187;23;20374;-75
2022/01/05 05:15:07;;;;;;;12.98;2.78;;;10.40;66.20;;;;;;6157983;23;20031;-74
2022/01/05 05:17:33;;;;;;;11.23;2.05;;;10.30;66.50;;;;;;6157765;23;20031;-75
2022/01/05 05:19:58;;;;;;;10.38;2.55;;;10.30;67.40;;;;;;6159481;23;20053;-75
2022/01/05 05:22:24;;;;;;;9.32;1.83;;;10.30;67.40;;;;;;6157276;23;20032;-75
2022/01/05 05:24:50;;;;;;;6.13;1.85;;;10.40;67.10;;;;;;6157803;23;20407;-75
2022/01/05 05:27:16;;;;;;;10.77;2.13;;;10.40;67.10;;;;;;6158148;23;20009;-75
2022/01/05 05:29:42;;;;;;;8.45;1.48;;;10.40;67.90;;;;;;6157559;23;20193;-74
2022/01/05 05:32:08;;;;;;;11.85;2.20;;;10.40;67.50;;;;;;6157526;23;20412;-77
2022/01/05 05:34:33;;;;;;;9.20;2.35;;;10.40;67.80;;;;;;6158432;23;20415;-74
2022/01/05 05:36:59;;;;;;;7.10;2.15;;;10.50;68.50;;;;;;6159110;23;20049;-74
2022/01/05 05:39:25;;;;;;;10.73;1.90;;;10.80;68.30;;;;;;6157610;23;20301;-73
2022/01/05 05:41:51;;;;;;;10.65;1.75;;;11.10;67.40;;;;;;6158558;23;20419;-74
2022/01/05 05:44:16;;;;;;;11.90;1.75;;;11.20;66.20;;;;;;6157480;23;20394;-74
2022/01/05 05:46:42;;;;;;;9.02;2.50;;;11.40;65.50;;;;;;6157203;23;20017;-78
2022/01/05 05:49:08;;;;;;;9.68;1.85;;;11.50;65.20;;;;;;6157294;23;20022;-76
2022/01/05 05:51:33;;;;;;;10.30;1.85;;;11.50;64.90;;;;;;6157852;23;20049;-70
2022/01/05 05:53:59;;;;;;;12.07;2.03;;;11.60;64.70;;;;;;6158395;23;20080;-74
2022/01/05 05:56:25;;;;;;;10.35;2.30;;;11.60;64.60;;;;;;6158684;23;20076;-73
2022/01/05 05:58:52;;;;;;;8.63;1.63;;;11.60;64.60;;;;;;6158443;23;20014;-73
2022/01/05 06:01:17;;;;;;;6.80;1.95;;;11.80;64.40;;;;;;6158343;23;20021;-73
2022/01/05 06:03:43;;;;;;;11.88;1.73;;;11.90;64.40;;;;;;6158277;23;20304;-73
2022/01/05 06:06:09;;;;;;;7.95;1.70;;;12.20;64.70;;;;;;6157806;23;20021;-73
2022/01/05 06:08:35;;;;;;;6.30;1.30;;;12.40;64.40;;;;;;6158815;23;20514;-73
2022/01/05 06:11:00;;;;;;;6.95;1.15;;;12.80;64.40;;;;;;6159420;23;20013;-74
2022/01/05 06:13:26;;;;;;;8.35;1.83;;;13.10;64.10;;;;;;6158387;23;20415;-74
2022/01/05 06:15:52;;;;;;;4.57;1.10;;;13.40;63.70;;;;;;6158212;23;20028;-74
2022/01/05 06:18:17;;;;;;;4.43;1.30;;;13.70;62.80;;;;;;6158016;23;20021;-69
2022/01/05 06:20:43;;;;;;;13.43;1.67;;;13.90;62.90;;;;;;6156310;23;20017;-69
2022/01/05 06:23:09;;;;;;;8.52;1.73;;;14.10;62.60;;;;;;6157010;23;20017;-78
2022/01/05 06:25:34;;;;;;;5.03;1.48;;;14.30;61.90;;;;;;6158551;23;20033;-78
2022/01/05 06:28:11;;;;;;;8.65;1.33;;;14.50;61.80;;;;;;6132628;23;20310;-69
2022/01/05 06:30:38;;;;;;;6.13;1.02;;;14.60;61.20;;;;;;6156417;23;20013;-77
2022/01/05 06:33:04;;;;;;;11.20;3.40;;;14.70;61.50;;;;;;6156731;23;20109;-80
2022/01/05 06:35:30;;;;;;;7.82;1.70;;;14.80;61.10;;;;;;6158573;23;20299;-73
2022/01/05 06:37:55;;;;;;;9.90;1.70;;;14.80;61.00;;;;;;6158957;23;20028;-81
2022/01/05 06:40:21;;;;;;;9.35;1.75;;;14.90;61.90;;;;;;6157637;23;20481;-79
2022/01/05 06:42:47;;;;;;;9.90;2.30;;;15.00;61.40;;;;;;6156984;23;20027;-80
2022/01/05 06:45:13;;;;;;;5.10;1.70;;;15.10;62.10;;;;;;6156635;23;20382;-80
2022/01/05 06:47:39;;;;;;;8.07;1.30;;;15.20;62.50;;;;;;6131705;23;20402;-80
2022/01/05 06:50:05;;;;;;;5.90;1.48;;;15.30;62.00;;;;;;6157985;23;20104;-80
2022/01/05 06:52:32;;;;;;;9.00;1.80;;;15.40;61.90;;;;;;6158157;23;20375;-75
2022/01/05 06:54:57;;;;;;;7.80;1.35;;;15.40;61.60;;;;;;6156928;23;20017;-74
2022/01/05 06:57:23;;;;;;;4.60;1.20;;;15.50;60.50;;;;;;6157408;23;20021;-72
2022/01/05 06:59:49;;;;;;;7.32;1.90;;;15.50;60.80;;;;;;6131864;23;20020;-76
2022/01/05 07:02:14;;;;;;;7.00;1.38;;;15.50;60.20;;;;;;6158027;23;20014;-73
2022/01/05 07:04:40;;;;;;;6.80;1.55;;;15.60;61.00;;;;;;6158009;23;20427;-73
2022/01/05 07:07:06;;;;;;;5.05;1.25;;;15.60;61.00;;;;;;6158150;23;20021;-72
2022/01/05 07:09:32;;;;;;;5.55;1.55;;;15.60;61.30;;;;;;6158048;23;20088;-74
2022/01/05 07:11:57;;;;;;;5.03;1.40;;;15.70;61.70;;;;;;6156932;23;20538;-74
2022/01/05 07:14:23;;;;;;;7.53;1.35;;;15.80;61.10;;;;;;6158422;23;20018;-73
2022/01/05 07:16:53;;;;;;;6.55;1.00;;;15.80;61.30;;;;;;6157565;23;20018;-74
2022/01/05 07:19:20;;;;;;;7.32;1.48;;;15.90;61.60;;;;;;6157599;23;20095;-74
2022/01/05 07:21:46;;;;;;;7.18;1.20;;;15.90;61.40;;;;;;6158027;23;20339;-73
2022/01/05 07:24:16;;;;;;;3.58;1.20;;;16.00;61.70;;;;;;6157976;23;20075;-73
2022/01/05 07:26:42;;;;;;;7.93;1.20;;;16.00;61.40;;;;;;6158063;23;20017;-72
2022/01/05 07:29:08;;;;;;;9.15;1.63;;;16.10;61.80;;;;;;6156684;23;20084;-73
2022/01/05 07:31:33;;;;;;;6.15;1.30;;;16.10;58.50;;;;;;6157650;23;20055;-75
2022/01/05 07:33:59;;;;;;;5.22;1.10;;;15.40;61.80;;;;;;6157975;23;20021;-74
2022/01/05 07:36:25;;;;;;;6.80;1.13;;;15.60;62.60;;;;;;6158447;23;20014;-73
2022/01/05 07:38:51;;;;;;;6.78;0.88;;;15.80;62.50;;;;;;6157496;23;20197;-75
2022/01/05 07:41:16;;;;;;;7.28;1.63;;;15.90;60.90;;;;;;6157781;23;20036;-74
2022/01/05 07:43:42;;;;;;;9.68;1.20;;;16.10;62.50;;;;;;6156872;23;20431;-74
2022/01/05 07:46:08;;;;;;;7.95;0.90;;;16.20;62.90;;;;;;6157349;23;20017;-73
2022/01/05 07:48:33;;;;;;;5.72;1.42;;;16.20;62.60;;;;;;6157432;23;20323;-72
2022/01/05 07:50:59;;;;;;;9.27;1.38;;;16.30;62.80;;;;;;6157342;23;20025;-74
2022/01/05 07:53:25;;;;;;;8.45;1.05;;;16.30;62.60;;;;;;6157701;23;20423;-74
2022/01/05 07:55:51;;;;;;;6.75;1.00;;;16.40;62.50;;;;;;6157090;23;20024;-74
2022/01/05 07:58:16;;;;;;;4.88;0.93;;;16.40;62.60;;;;;;6155696;23;20021;-74
2022/01/05 08:00:42;;;;;;;7.72;1.25;;;16.40;62.50;;;;;;6157552;23;20025;-75
2022/01/05 08:03:08;;;;;;;5.25;1.40;;;16.50;63.30;;;;;;6156736;23;20072;-73
2022/01/05 08:05:33;;;;;;;8.55;1.17;;;16.40;61.60;;;;;;6157145;23;20063;-73
2022/01/05 08:07:59;;;;;;;9.57;1.52;;;16.40;61.90;;;;;;6157188;23;20017;-69
2022/01/05 08:10:25;;;;;;;6.25;0.85;;;16.40;62.20;;;;;;6159365;23;20029;-74
2022/01/05 08:12:50;;;;;;;7.82;1.45;;;16.30;61.60;;;;;;6159340;23;20021;-76
2022/01/05 08:15:16;;;;;;;13.63;1.35;;;16.40;62.50;;;;;;6157808;23;20068;-74
2022/01/05 08:17:45;;;;;;;4.85;1.50;;;16.40;61.80;;;;;;6159539;23;20029;-74
2022/01/05 08:20:11;;;;;;;14.32;1.38;;;16.50;59.40;;;;;;6158998;23;20435;-74
2022/01/05 08:22:41;;;;;;;8.52;1.55;;;15.30;62.00;;;;;;6157832;23;20017;-75
2022/01/05 08:25:12;;;;;;;9.57;1.42;;;15.70;63.50;;;;;;6159240;23;20013;-77
2022/01/05 08:27:45;;;;;;;12.90;1.65;;;15.80;63.90;;;;;;6157972;23;20039;-76
2022/01/05 08:30:16;;;;;;;10.52;1.55;;;16.00;63.90;;;;;;6133372;23;20022;-76
2022/01/05 08:32:43;;;;;;;15.50;1.70;;;16.20;61.60;;;;;;6158885;23;20423;-78
2022/01/05 08:35:10;;;;;;;9.07;1.50;;;16.30;62.10;;;;;;6158990;23;20036;-78
2022/01/05 08:37:36;;;;;;;10.30;1.52;;;16.20;60.80;;;;;;6160237;23;20307;-77
2022/01/05 08:40:03;;;;;;;11.60;1.60;;;16.30;61.30;;;;;;6159268;23;20017;-78
2022/01/05 08:42:29;;;;;;;11.25;2.03;;;16.40;61.20;;;;;;6158207;23;20295;-74
2022/01/05 08:44:54;;;;;;;12.55;2.03;;;16.50;61.30;;;;;;6157523;23;20022;-76
2022/01/05 08:47:20;;;;;;;7.95;1.33;;;16.50;61.50;;;;;;6157073;23;20355;-76
2022/01/05 08:49:46;;;;;;;15.02;2.00;;;16.60;61.50;;;;;;6158060;23;20021;-77
2022/01/05 08:52:12;;;;;;;7.55;1.25;;;16.60;61.60;;;;;;6158172;23;20022;-76
2022/01/05 08:54:37;;;;;;;9.13;2.13;;;16.60;61.20;;;;;;6158520;23;20026;-76
2022/01/05 08:57:04;;;;;;;6.78;1.50;;;16.70;61.70;;;;;;6159167;23;20100;-78
2022/01/05 08:59:30;;;;;;;5.40;1.58;;;16.60;61.70;;;;;;6159055;23;20327;-76
2022/01/05 09:01:55;;;;;;;9.23;1.73;;;16.60;62.00;;;;;;6157766;23;20017;-78
2022/01/05 09:04:22;;;;;;;10.63;1.60;;;16.60;62.10;;;;;;6157917;23;20028;-77
2022/01/05 09:06:48;;;;;;;7.88;2.03;;;16.60;62.00;;;;;;6158935;23;20013;-77
2022/01/05 09:09:13;;;;;;;7.90;1.10;;;16.40;55.50;;;;;;6158140;23;20518;-77
2022/01/05 09:11:40;;;;;;;12.63;2.05;;;15.40;61.80;;;;;;6159906;23;20415;-77
2022/01/05 09:14:06;;;;;;;11.27;2.05;;;15.60;63.50;;;;;;6158636;23;20121;-77
2022/01/05 09:16:32;;;;;;;11.43;1.98;;;15.70;63.50;;;;;;6132763;23;20049;-75
2022/01/05 09:18:58;;;;;;;10.38;1.77;;;15.80;63.00;;;;;;6159224;23;20018;-76
2022/01/05 09:21:24;;;;;;;11.38;2.10;;;15.90;62.80;;;;;;6158284;23;20022;-76
2022/01/05 09:23:50;;;;;;;9.45;2.28;;;15.90;62.20;;;;;;6158800;23;20296;-79
2022/01/05 09:26:16;;;;;;;9.77;2.08;;;16.00;62.00;;;;;;6159494;23;20063;-76
2022/01/05 09:28:44;;;;;;;9.13;1.98;;;15.90;62.10;;;;;;6157621;23;20474;-77
2022/01/05 09:31:10;;;;;;;11.88;2.20;;;16.00;62.00;;;;;;6157603;23;20014;-78
2022/01/05 09:33:36;;;;;;;8.88;2.05;;;16.00;62.00;;;;;;6159076;23;20083;-77
2022/01/05 09:36:14;;;;;;;10.38;2.17;;;16.10;61.80;;;;;;6158896;23;20037;-78
2022/01/05 09:44:07;;;;;;;8.82;1.73;;;16.20;61.70;;;;;;6158509;23;20021;-77
2022/01/05 09:46:51;;;;;;;8.30;1.85;;;16.20;61.70;;;;;;6158095;23;20025;-77
2022/01/05 09:49:34;;;;;;;6.90;1.83;;;16.20;61.90;;;;;;6156752;23;20028;-73
2022/01/05 09:52:09;;;;;;;5.38;1.70;;;16.20;61.70;;;;;;6157024;23;20092;-75
2022/01/05 09:54:36;;;;;;;8.48;1.88;;;16.20;61.70;;;;;;6158415;23;20067;-73
2022/01/05 09:57:03;;;;;;;5.47;1.40;;;16.30;61.90;;;;;;6157996;23;20432;-76
2022/01/05 09:59:32;;;;;;;8.73;1.63;;;16.20;61.80;;;;;;6158745;23;20072;-76
2022/01/05 10:01:58;;;;;;;6.38;1.30;;;16.30;62.10;;;;;;6158253;23;20025;-76
2022/01/05 10:04:24;;;;;;;9.15;2.13;;;16.30;62.10;;;;;;6158753;23;20029;-74
2022/01/05 10:06:50;;;;;;;8.45;1.63;;;16.30;61.90;;;;;;6157752;23;20017;-73
2022/01/05 10:09:15;;;;;;;6.22;1.23;;;16.30;62.00;;;;;;6157713;23;20017;-75
2022/01/05 10:11:41;;;;;;;9.38;2.58;;;16.30;62.10;;;;;;6157068;23;20408;-73
2022/01/05 10:14:11;;;;;;;6.22;1.60;;;15.40;57.60;;;;;;6156755;23;20028;-73
2022/01/05 10:16:37;;;;;;;8.32;2.13;;;15.70;62.00;;;;;;6157817;23;20028;-75
2022/01/05 10:19:05;;;;;;;5.40;1.30;;;15.80;62.10;;;;;;6157709;23;20100;-73
2022/01/05 10:21:36;;;;;;;8.38;1.60;;;15.90;62.00;;;;;;6158425;23;20017;-75
2022/01/05 10:24:03;;;;;;;11.77;1.58;;;16.00;62.00;;;;;;6157837;23;20036;-76
2022/01/05 10:26:39;;;;;;;7.13;1.60;;;16.10;61.80;;;;;;6156593;23;20053;-75
2022/01/05 10:29:16;;;;;;;6.53;1.65;;;16.20;61.80;;;;;;6157631;23;20441;-75
2022/01/05 10:31:44;;;;;;;7.70;1.70;;;16.20;61.60;;;;;;6157394;23;20060;-74
2022/01/05 10:34:28;;;;;;;6.70;1.65;;;16.20;61.40;;;;;;6157717;23;20032;-74
2022/01/05 10:36:59;;;;;;;4.85;1.27;;;16.20;61.10;;;;;;6156018;23;20029;-76
2022/01/05 10:39:32;;;;;;;14.27;2.08;;;16.20;61.20;;;;;;6155635;23;20411;-73
2022/01/05 10:42:05;;;;;;;8.20;2.05;;;16.30;61.80;;;;;;6156610;23;20013;-73
2022/01/05 10:44:31;;;;;;;8.90;2.20;;;16.30;62.10;;;;;;6157665;23;20107;-69
2022/01/05 10:46:58;;;;;;;10.00;1.50;;;16.30;62.50;;;;;;6157449;23;20343;-75
2022/01/05 10:49:33;;;;;;;9.10;1.85;;;16.30;61.90;;;;;;6157691;23;20025;-74
2022/01/05 10:52:19;;;;;;;7.30;1.63;;;16.30;62.40;;;;;;6157241;23;20017;-73
2022/01/05 10:54:46;;;;;;;9.98;1.75;;;16.30;62.20;;;;;;6157646;23;20430;-71
2022/01/05 10:57:13;;;;;;;8.25;1.77;;;16.40;62.50;;;;;;6157979;23;20025;-72
2022/01/05 10:59:45;;;;;;;6.40;1.70;;;16.40;62.60;;;;;;6158047;23;20087;-72
2022/01/05 11:02:30;;;;;;;10.53;1.93;;;16.40;62.80;;;;;;6156498;23;20423;-73
2022/01/05 11:05:12;;;;;;;7.03;1.35;;;16.40;63.20;;;;;;6157073;23;20029;-73
2022/01/05 11:07:39;;;;;;;10.23;1.88;;;16.40;63.30;;;;;;6157939;23;20028;-71
2022/01/05 11:10:11;;;;;;;7.10;1.60;;;16.50;63.20;;;;;;6156579;23;20033;-72
2022/01/05 11:12:51;;;;;;;9.63;1.85;;;16.60;63.00;;;;;;6157906;23;20022;-73
2022/01/05 11:15:32;;;;;;;7.72;1.35;;;16.60;63.20;;;;;;6158332;23;20028;-73
2022/01/05 11:18:11;;;;;;;9.25;1.90;;;16.60;63.40;;;;;;6157943;23;20022;-73
2022/01/05 11:20:46;;;;;;;9.80;1.70;;;16.60;63.40;;;;;;6157840;23;20316;-72
2022/01/05 11:23:13;;;;;;;6.82;1.08;;;16.60;63.50;;;;;;6157986;23;20022;-72
2022/01/05 11:25:40;;;;;;;11.90;1.92;;;16.70;63.50;;;;;;6156903;23;20017;-71
2022/01/05 11:28:06;;;;;;;8.45;1.80;;;16.80;63.30;;;;;;6157755;23;20024;-71
2022/01/05 11:30:33;;;;;;;6.63;1.38;;;16.80;62.60;;;;;;6156806;23;20079;-73
2022/01/05 11:32:59;;;;;;;9.73;2.10;;;16.60;62.60;;;;;;6157918;23;20387;-71
2022/01/05 11:35:25;;;;;;;7.75;1.70;;;16.50;59.90;;;;;;6157665;23;20021;-72
2022/01/05 11:37:51;;;;;;;8.38;1.83;;;15.90;62.70;;;;;;6157882;23;20359;-73
2022/01/05 11:40:17;;;;;;;8.82;1.38;;;16.10;63.70;;;;;;6157491;23;20068;-66
2022/01/05 11:42:48;;;;;;;10.32;1.75;;;16.20;63.60;;;;;;6156394;23;20036;-73
2022/01/05 11:45:36;;;;;;;5.90;1.60;;;16.30;63.80;;;;;;6159118;23;20100;-72
2022/01/05 11:48:30;;;;;;;4.57;1.40;;;16.00;63.90;;;;;;6159494;23;20033;-66
2022/01/05 11:51:01;;;;;;;10.10;1.83;;;16.20;64.30;;;;;;6159516;23;20021;-73
2022/01/05 11:53:38;;;;;;;8.27;1.63;;;16.30;63.40;;;;;;6158815;23;20029;-73
2022/01/05 11:56:06;;;;;;;6.70;1.48;;;16.40;63.80;;;;;;6159416;23;20096;-74
2022/01/05 11:58:33;;;;;;;13.00;1.25;;;16.40;63.50;;;;;;6159981;23;20092;-73
2022/01/05 12:01:17;;;;;;;6.80;1.52;;;16.40;63.30;;;;;;6158925;23;20028;-72
2022/01/05 12:04:06;;;;;;;9.23;1.65;;;16.40;63.20;;;;;;6158217;23;20032;-73
2022/01/05 12:06:44;;;;;;;10.15;1.52;;;16.40;63.30;;;;;;6159113;23;20017;-75
2022/01/05 12:09:25;;;;;;;11.23;1.80;;;16.40;63.80;;;;;;6159504;23;20316;-73
2022/01/05 12:11:51;;;;;;;11.57;1.83;;;16.30;63.90;;;;;;6159506;23;20021;-72
2022/01/05 12:14:20;;;;;;;9.52;1.77;;;16.40;64.50;;;;;;6159520;23;20029;-73
2022/01/05 12:17:06;;;;;;;8.90;1.70;;;16.40;65.50;;;;;;6159084;23;20017;-74
2022/01/05 12:19:55;;;;;;;15.85;1.95;;;16.40;65.60;;;;;;6158299;23;20036;-74
2022/01/05 12:22:23;;;;;;;5.18;1.30;;;16.50;65.30;;;;;;6159551;23;20359;-74
2022/01/05 12:25:03;;;;;;;13.50;2.33;;;16.50;64.90;;;;;;6160031;23;20075;-72
2022/01/05 12:27:32;;;;;;;8.27;1.48;;;16.50;64.70;;;;;;6159268;23;20096;-74
2022/01/05 12:29:59;;;;;;;11.73;1.73;;;16.50;64.70;;;;;;6159022;23;20111;-75
2022/01/05 12:32:39;;;;;;;10.10;1.63;;;16.50;60.90;;;;;;6157624;23;20022;-74
2022/01/05 12:35:06;;;;;;;9.13;1.67;;;15.70;61.80;;;;;;6159144;23;20076;-72
2022/01/05 12:37:47;;;;;;;7.63;1.88;;;15.70;65.30;;;;;;6158212;23;20447;-74
2022/01/05 12:40:35;;;;;;;12.60;2.20;;;15.90;66.40;;;;;;6159921;23;20025;-75
2022/01/05 12:43:10;;;;;;;12.48;1.75;;;16.10;66.20;;;;;;6157845;23;20061;-74
2022/01/05 12:45:46;;;;;;;8.75;1.63;;;16.20;65.90;;;;;;6159168;23;20056;-75
2022/01/05 12:48:32;;;;;;;14.70;2.45;;;16.30;65.30;;;;;;6158750;23;20429;-74
2022/01/05 12:51:22;;;;;;;11.73;2.15;;;16.40;65.10;;;;;;6132707;23;20022;-76
2022/01/05 12:54:06;;;;;;;9.30;1.95;;;16.50;65.00;;;;;;6158948;23;20017;-76